createdAt,value
2024-01-22T00:02:46.845Z,69.38
2024-01-22T00:05:44.638Z,69.44
2024-01-22T00:08:42.193Z,69.51
2024-01-22T00:11:39.854Z,69.58
2024-01-22T00:14:37.650Z,69.63
2024-01-22T00:17:35.484Z,69.70
2024-01-22T00:20:33.133Z,69.77
2024-01-22T00:23:30.929Z,69.89
2024-01-22T00:26:28.332Z,69.96
2024-01-22T00:29:26.071Z,70.00
2024-01-22T00:32:23.496Z,70.02
2024-01-22T00:35:21.901Z,70.03
2024-01-22T00:38:19.658Z,70.10
2024-01-22T00:41:17.087Z,70.16
2024-01-22T00:44:14.781Z,70.20
2024-01-22T00:47:12.192Z,70.28
2024-01-22T00:50:09.916Z,70.30
2024-01-22T00:53:07.301Z,70.34
2024-01-22T00:56:08.230Z,70.45
2024-01-22T00:59:07.746Z,70.50
2024-01-22T01:02:05.384Z,70.57
2024-01-22T01:05:03.102Z,70.67
2024-01-22T01:08:00.599Z,70.69
2024-01-22T01:10:58.484Z,70.72
2024-01-22T01:13:55.870Z,70.79
2024-01-22T01:16:53.505Z,70.80
2024-01-22T01:19:51.231Z,70.84
2024-01-22T01:22:48.930Z,70.81
2024-01-22T01:25:46.503Z,70.88
2024-01-22T01:28:43.914Z,70.95
2024-01-22T01:31:41.602Z,71.00
2024-01-22T01:34:39.070Z,71.09
2024-01-22T01:37:37.265Z,71.16
2024-01-22T01:40:34.914Z,71.18
2024-01-22T01:43:32.287Z,71.21
2024-01-22T01:46:29.944Z,71.28
2024-01-22T01:49:27.526Z,71.30
2024-01-22T01:52:25.283Z,71.36
2024-01-22T01:55:23.056Z,71.40
2024-01-22T01:58:20.683Z,71.43
2024-01-22T02:01:18.460Z,71.50
2024-01-22T02:04:16.022Z,71.64
2024-01-22T02:07:13.621Z,71.70
2024-01-22T02:10:11.367Z,71.71
2024-01-22T02:13:10.490Z,71.78
2024-01-22T02:16:08.094Z,71.70
2024-01-22T02:19:05.624Z,71.72
2024-01-22T02:22:03.461Z,71.80
2024-01-22T02:25:01.583Z,71.79
2024-01-22T02:27:58.973Z,71.89
2024-01-22T02:30:56.657Z,71.97
2024-01-22T02:33:54.153Z,72.07
2024-01-22T02:36:51.903Z,72.11
2024-01-22T02:39:49.667Z,72.18
2024-01-22T02:42:47.049Z,72.23
2024-01-22T02:45:45.494Z,72.28
2024-01-22T02:48:43.399Z,72.30
2024-01-22T02:51:41.197Z,72.30
2024-01-22T02:54:38.575Z,72.25
2024-01-22T02:57:36.245Z,72.25
2024-01-22T03:00:33.657Z,72.30
2024-01-22T03:03:31.541Z,72.30
2024-01-22T03:06:29.087Z,72.34
2024-01-22T03:09:27.348Z,72.47
2024-01-22T03:12:24.764Z,72.53
2024-01-22T03:15:22.507Z,72.63
2024-01-22T03:18:20.054Z,72.76
2024-01-22T03:21:17.924Z,72.78
2024-01-22T03:24:15.589Z,72.77
2024-01-22T03:27:13.336Z,72.71
2024-01-22T03:30:10.813Z,72.76
2024-01-22T03:33:09.012Z,72.80
2024-01-22T03:36:06.706Z,72.80
2024-01-22T03:39:04.423Z,72.88
2024-01-22T03:42:02.294Z,72.97
2024-01-22T03:45:00.005Z,73.00
2024-01-22T03:47:57.916Z,73.01
2024-01-22T03:50:55.475Z,73.07
2024-01-22T03:53:53.237Z,73.14
2024-01-22T03:56:51.314Z,73.20
2024-01-22T03:59:50.284Z,73.20
2024-01-22T04:02:47.904Z,73.20
2024-01-22T04:05:45.696Z,73.20
2024-01-22T04:08:43.116Z,73.23
2024-01-22T04:11:41.086Z,73.25
2024-01-22T04:14:38.658Z,73.28
2024-01-22T04:17:36.569Z,73.30
2024-01-22T04:20:34.269Z,73.30
2024-01-22T04:23:31.939Z,73.33
2024-01-22T04:26:29.588Z,73.31
2024-01-22T04:29:26.987Z,73.35
2024-01-22T04:32:24.726Z,73.40
2024-01-22T04:35:22.407Z,73.40
2024-01-22T04:38:20.150Z,73.38
2024-01-22T04:41:17.531Z,73.36
2024-01-22T04:44:15.290Z,73.40
2024-01-22T04:47:12.657Z,73.49
2024-01-22T04:50:10.507Z,73.52
2024-01-22T04:53:07.903Z,73.59
2024-01-22T04:56:05.630Z,73.68
2024-01-22T04:59:02.997Z,73.66
2024-01-22T05:02:00.660Z,73.68
2024-01-22T05:04:58.562Z,73.70
2024-01-22T05:07:56.286Z,73.77
2024-01-22T05:10:53.961Z,73.76
2024-01-22T05:13:51.441Z,73.75
2024-01-22T05:16:49.988Z,73.80
2024-01-22T05:19:47.656Z,73.80
2024-01-22T05:22:45.849Z,73.80
2024-01-22T05:25:43.716Z,73.80
2024-01-22T05:28:41.093Z,73.80
2024-01-22T05:31:39.013Z,73.80
2024-01-22T05:34:36.689Z,73.86
2024-01-22T05:37:34.554Z,73.86
2024-01-22T05:40:31.932Z,73.90
2024-01-22T05:43:29.698Z,73.90
2024-01-22T05:46:27.136Z,73.90
2024-01-22T05:49:26.407Z,73.99
2024-01-22T05:52:25.773Z,74.01
2024-01-22T05:55:24.000Z,74.06
2024-01-22T05:58:21.513Z,74.08
2024-01-22T06:01:19.179Z,74.01
2024-01-22T06:04:16.903Z,74.00
2024-01-22T06:07:14.832Z,74.00
2024-01-22T06:10:13.500Z,74.03
2024-01-22T06:13:11.356Z,74.07
2024-01-22T06:16:09.270Z,74.04
2024-01-22T06:19:07.108Z,74.05
2024-01-22T06:22:05.490Z,74.10
2024-01-22T06:25:04.917Z,74.11
2024-01-22T06:28:02.653Z,74.10
2024-01-22T06:31:00.219Z,74.11
2024-01-22T06:33:57.763Z,74.19
2024-01-22T06:36:55.572Z,74.27
2024-01-22T06:39:53.758Z,74.28
2024-01-22T06:42:51.553Z,74.30
2024-01-22T06:45:49.013Z,74.32
2024-01-22T06:48:47.064Z,74.38
2024-01-22T06:51:46.283Z,74.47
2024-01-22T06:54:45.209Z,74.49
2024-01-22T06:57:42.770Z,74.49
2024-01-22T07:00:40.818Z,74.50
2024-01-22T07:03:38.370Z,74.51
2024-01-22T07:06:36.923Z,74.49
2024-01-22T07:09:34.417Z,74.60
2024-01-22T07:12:32.058Z,74.61
2024-01-22T07:15:30.297Z,74.64
2024-01-22T07:18:28.156Z,74.75
2024-01-22T07:21:26.341Z,74.79
2024-01-22T07:24:24.397Z,74.82
2024-01-22T07:27:22.215Z,74.80
2024-01-22T07:30:19.777Z,74.80
2024-01-22T07:33:17.841Z,74.78
2024-01-22T07:36:15.395Z,74.80
2024-01-22T07:39:13.091Z,74.88
2024-01-22T07:42:11.054Z,74.96
2024-01-22T07:45:08.703Z,75.01
2024-01-22T07:48:06.262Z,75.06
2024-01-22T07:51:04.155Z,75.09
2024-01-22T07:54:02.619Z,75.08
2024-01-22T07:57:00.326Z,75.03
2024-01-22T07:59:58.172Z,74.99
2024-01-22T08:02:55.863Z,74.90
2024-01-22T08:05:54.384Z,74.86
2024-01-22T08:08:51.951Z,74.80
2024-01-22T08:11:50.276Z,74.75
2024-01-22T08:14:47.706Z,74.68
2024-01-22T08:17:48.311Z,74.56
2024-01-22T08:20:46.488Z,74.45
2024-01-22T08:23:44.199Z,74.36
2024-01-22T08:26:41.760Z,74.22
2024-01-22T08:29:39.551Z,74.07
2024-01-22T08:32:37.079Z,73.88
2024-01-22T08:35:35.008Z,73.71
2024-01-22T08:38:32.461Z,73.42
2024-01-22T08:41:30.172Z,73.28
2024-01-22T08:44:27.826Z,73.09
2024-01-22T08:47:25.255Z,72.69
2024-01-22T08:50:23.944Z,72.58
2024-01-22T08:53:21.410Z,72.25
2024-01-22T08:56:19.218Z,72.08
2024-01-22T08:59:17.374Z,71.90
2024-01-22T09:02:15.512Z,71.78
2024-01-22T09:05:12.944Z,71.38
2024-01-22T09:08:10.775Z,70.90
2024-01-22T09:11:08.210Z,70.69
2024-01-22T09:14:06.122Z,70.28
2024-01-22T09:17:03.888Z,69.85
2024-01-22T09:20:01.601Z,69.70
2024-01-22T09:22:58.999Z,69.37
2024-01-22T09:25:56.636Z,69.03
2024-01-22T09:28:55.058Z,68.59
2024-01-22T09:31:52.541Z,68.56
2024-01-22T09:34:50.206Z,68.57
2024-01-22T09:37:47.712Z,68.32
2024-01-22T09:40:46.056Z,67.88
2024-01-22T09:43:43.766Z,67.65
2024-01-22T09:46:41.511Z,67.67
2024-01-22T09:49:39.268Z,67.43
2024-01-22T09:52:37.077Z,67.24
2024-01-22T09:55:34.488Z,67.22
2024-01-22T09:58:32.224Z,67.12
2024-01-22T10:01:29.785Z,66.83
2024-01-22T10:04:28.109Z,66.19
2024-01-22T10:07:25.838Z,65.72
2024-01-22T10:10:23.476Z,65.48
2024-01-22T10:13:20.864Z,65.47
2024-01-22T10:16:20.634Z,64.99
2024-01-22T10:19:18.669Z,64.53
2024-01-22T10:22:16.393Z,64.57
2024-01-22T10:25:13.782Z,64.36
2024-01-22T10:28:11.433Z,64.01
2024-01-22T10:31:12.913Z,63.79
2024-01-22T10:34:10.735Z,63.38
2024-01-22T10:37:08.641Z,62.94
2024-01-22T10:40:09.670Z,63.06
2024-01-22T10:43:07.325Z,62.97
2024-01-22T10:46:04.995Z,62.67
2024-01-22T10:49:02.665Z,62.57
2024-01-22T10:52:01.877Z,62.47
2024-01-22T10:54:59.630Z,62.42
2024-01-22T10:57:57.185Z,61.84
2024-01-22T11:00:55.314Z,61.77
2024-01-22T11:03:53.668Z,61.46
2024-01-22T11:06:52.876Z,61.33
2024-01-22T11:09:50.355Z,61.10
2024-01-22T11:12:48.053Z,61.20
2024-01-22T11:15:47.241Z,60.91
2024-01-22T11:18:45.744Z,60.86
2024-01-22T11:21:45.080Z,60.51
2024-01-22T11:24:42.816Z,60.37
2024-01-22T11:27:41.180Z,60.11
2024-01-22T11:30:39.775Z,59.66
2024-01-22T11:33:37.672Z,59.46
2024-01-22T11:36:35.570Z,59.28
2024-01-22T11:39:33.145Z,58.91
2024-01-22T11:42:30.911Z,58.58
2024-01-22T11:45:32.849Z,58.21
2024-01-22T11:48:39.286Z,57.90
2024-01-22T11:51:37.049Z,57.39
2024-01-22T11:54:34.776Z,57.39
2024-01-22T11:57:32.991Z,57.41
2024-01-22T12:00:31.001Z,57.30
2024-01-22T12:03:28.901Z,57.30
2024-01-22T12:06:26.411Z,57.14
2024-01-22T12:09:25.452Z,57.07
2024-01-22T12:12:22.923Z,57.03
2024-01-22T12:15:20.816Z,56.61
2024-01-22T12:18:18.413Z,56.67
2024-01-22T12:21:16.296Z,56.87
2024-01-22T12:24:13.984Z,56.92
2024-01-22T12:27:11.546Z,56.65
2024-01-22T12:30:09.899Z,56.88
2024-01-22T12:33:07.953Z,56.78
2024-01-22T12:36:06.232Z,56.64
2024-01-22T12:39:05.092Z,56.52
2024-01-22T12:42:03.069Z,56.56
2024-01-22T12:45:01.415Z,56.73
2024-01-22T12:48:00.032Z,56.37
2024-01-22T12:50:57.638Z,56.33
2024-01-22T12:53:55.425Z,56.28
2024-01-22T12:56:53.344Z,55.81
2024-01-22T12:59:51.270Z,55.65
2024-01-22T13:02:49.019Z,55.37
2024-01-22T13:05:46.812Z,54.91
2024-01-22T13:08:45.201Z,54.48
2024-01-22T13:11:45.907Z,54.52
2024-01-22T13:14:45.003Z,54.31
2024-01-22T13:17:43.437Z,54.19
2024-01-22T13:20:41.346Z,54.10
2024-01-22T13:23:39.513Z,54.17
2024-01-22T13:26:38.215Z,54.20
2024-01-22T13:29:37.294Z,54.23
2024-01-22T13:32:35.097Z,54.30
2024-01-22T13:35:32.765Z,54.47
2024-01-22T13:38:34.018Z,54.67
2024-01-22T13:41:31.779Z,54.82
2024-01-22T13:44:29.176Z,54.95
2024-01-22T13:47:36.876Z,55.17
2024-01-22T13:50:36.030Z,55.21
2024-01-22T13:53:33.841Z,55.16
2024-01-22T13:56:31.623Z,55.33
2024-01-22T13:59:29.052Z,55.45
2024-01-22T14:02:26.777Z,55.48
2024-01-22T14:05:25.284Z,55.29
2024-01-22T14:08:23.965Z,55.17
2024-01-22T14:11:21.670Z,55.17
2024-01-22T14:14:23.382Z,55.36
2024-01-22T14:17:27.059Z,55.58
2024-01-22T14:20:25.133Z,55.60
2024-01-22T14:23:22.617Z,55.79
2024-01-22T14:26:20.257Z,56.00
2024-01-22T14:29:18.043Z,56.04
2024-01-22T14:32:15.726Z,56.05
2024-01-22T14:35:13.231Z,56.18
2024-01-22T14:38:11.922Z,56.40
2024-01-22T14:41:12.533Z,56.50
2024-01-22T14:44:10.270Z,56.63
2024-01-22T14:47:07.809Z,56.76
2024-01-22T14:50:05.767Z,57.02
2024-01-22T14:53:04.997Z,57.25
2024-01-22T14:56:02.893Z,57.42
2024-01-22T14:59:00.437Z,57.66
2024-01-22T15:01:58.304Z,57.87
2024-01-22T15:04:56.033Z,58.03
2024-01-22T15:07:54.028Z,58.14
2024-01-22T15:10:51.713Z,58.30
2024-01-22T15:13:50.122Z,58.46
2024-01-22T15:16:49.060Z,58.55
2024-01-22T15:19:46.967Z,58.69
2024-01-22T15:22:44.718Z,58.79
2024-01-22T15:25:43.528Z,58.87
2024-01-22T15:28:42.368Z,59.02
2024-01-22T15:31:40.717Z,59.13
2024-01-22T15:34:38.683Z,59.22
2024-01-22T15:37:36.515Z,59.28
2024-01-22T15:40:34.177Z,59.30
2024-01-22T15:43:31.940Z,59.36
2024-01-22T15:46:30.650Z,59.36
2024-01-22T15:49:29.818Z,59.39
2024-01-22T15:52:27.476Z,59.35
2024-01-22T15:55:25.165Z,59.35
2024-01-22T15:58:23.045Z,59.28
2024-01-22T16:01:23.237Z,59.22
2024-01-22T16:04:22.942Z,59.18
2024-01-22T16:07:22.866Z,59.19
2024-01-22T16:10:21.603Z,59.13
2024-01-22T16:13:20.066Z,59.10
2024-01-22T16:16:18.375Z,59.10
2024-01-22T16:19:19.486Z,59.09
2024-01-22T16:22:19.827Z,59.16
2024-01-22T16:25:19.684Z,59.03
2024-01-22T16:28:17.376Z,59.09
2024-01-22T16:31:15.363Z,59.10
2024-01-22T16:34:13.542Z,59.09
2024-01-22T16:37:11.623Z,59.01
2024-01-22T16:40:15.791Z,59.05
2024-01-22T16:43:15.624Z,59.05
2024-01-22T16:46:13.741Z,59.02
2024-01-22T16:49:11.661Z,59.14
2024-01-22T16:52:09.356Z,59.23
2024-01-22T16:55:09.028Z,59.35
2024-01-22T16:58:06.699Z,59.44
2024-01-22T17:01:04.350Z,59.58
2024-01-22T17:04:01.796Z,59.77
2024-01-22T17:06:59.441Z,60.01
2024-01-22T17:09:56.788Z,60.23
2024-01-22T17:12:55.034Z,60.51
2024-01-22T17:15:52.841Z,60.87
2024-01-22T17:18:50.741Z,61.17
2024-01-22T17:21:50.323Z,61.45
2024-01-22T17:24:47.841Z,61.66
2024-01-22T17:27:45.550Z,61.83
2024-01-22T17:30:44.606Z,61.97
2024-01-22T17:33:42.693Z,62.11
2024-01-22T17:36:40.696Z,62.27
2024-01-22T17:39:39.585Z,62.38
2024-01-22T17:42:36.989Z,62.50
2024-01-22T17:45:34.670Z,62.60
2024-01-22T17:48:32.156Z,62.66
2024-01-22T17:51:29.892Z,62.72
2024-01-22T17:54:27.373Z,62.80
2024-01-22T17:57:25.111Z,62.82
2024-01-22T18:00:24.646Z,62.90
2024-01-22T18:03:22.711Z,62.91
2024-01-22T18:06:20.188Z,63.00
2024-01-22T18:09:18.083Z,63.00
2024-01-22T18:12:15.614Z,63.10
2024-01-22T18:15:13.869Z,63.15
2024-01-22T18:18:11.500Z,63.20
2024-01-22T18:21:09.281Z,63.21
2024-01-22T18:24:08.233Z,63.22
2024-01-22T18:27:06.098Z,63.27
2024-01-22T18:30:04.596Z,63.31
2024-01-22T18:33:02.373Z,63.35
2024-01-22T18:36:00.287Z,63.41
2024-01-22T18:38:57.841Z,63.47
2024-01-22T18:41:55.607Z,63.50
2024-01-22T18:44:54.118Z,63.54
2024-01-22T18:47:52.458Z,63.57
2024-01-22T18:50:51.045Z,63.60
2024-01-22T18:53:51.009Z,63.64
2024-01-22T18:56:49.429Z,63.70
2024-01-22T18:59:47.824Z,63.70
2024-01-22T19:02:48.244Z,63.70
2024-01-22T19:05:48.086Z,63.72
2024-01-22T19:08:48.022Z,63.78
2024-01-22T19:11:47.362Z,63.82
2024-01-22T19:14:47.089Z,63.86
2024-01-22T19:17:47.379Z,63.91
2024-01-22T19:20:48.031Z,64.00
2024-01-22T19:23:47.836Z,64.01
2024-01-22T19:26:45.917Z,64.09
2024-01-22T19:29:45.429Z,64.12
2024-01-22T19:32:43.935Z,64.18
2024-01-22T19:35:43.348Z,64.20
2024-01-22T19:38:41.271Z,64.25
2024-01-22T19:41:40.340Z,64.29
2024-01-22T19:44:38.986Z,64.34
2024-01-22T19:47:37.799Z,64.40
2024-01-22T19:50:37.719Z,64.40
2024-01-22T19:53:37.142Z,64.40
2024-01-22T19:56:36.264Z,64.40
2024-01-22T19:59:35.094Z,64.45
2024-01-22T20:02:34.640Z,64.43
2024-01-22T20:05:34.783Z,64.41
2024-01-22T20:08:34.608Z,64.41
2024-01-22T20:11:32.959Z,64.39
2024-01-22T20:14:31.477Z,64.40
2024-01-22T20:17:29.431Z,64.37
2024-01-22T20:20:28.565Z,64.33
2024-01-22T20:23:28.313Z,64.33
2024-01-22T20:26:27.933Z,64.31
2024-01-22T20:29:27.581Z,64.30
2024-01-22T20:32:27.351Z,64.28
2024-01-22T20:35:26.203Z,64.23
2024-01-22T20:38:25.845Z,64.26
2024-01-22T20:41:25.264Z,64.25
2024-01-22T20:44:24.678Z,64.27
2024-01-22T20:47:23.411Z,64.22
2024-01-22T20:50:22.326Z,64.28
2024-01-22T20:53:20.672Z,64.28
2024-01-22T20:56:20.686Z,64.32
2024-01-22T20:59:18.269Z,64.35
2024-01-22T21:02:16.424Z,64.40
2024-01-22T21:05:13.922Z,64.39
2024-01-22T21:08:11.693Z,64.40
2024-01-22T21:11:09.088Z,64.41
2024-01-22T21:14:07.451Z,64.40
2024-01-22T21:17:05.178Z,64.40
2024-01-22T21:20:03.206Z,64.32
2024-01-22T21:23:00.706Z,64.32
2024-01-22T21:25:58.435Z,64.41
2024-01-22T21:28:55.904Z,64.48
2024-01-22T21:31:53.651Z,64.50
2024-01-22T21:34:51.206Z,64.60
2024-01-22T21:37:49.130Z,64.61
2024-01-22T21:40:46.578Z,64.64
2024-01-22T21:43:44.350Z,64.70
2024-01-22T21:46:41.722Z,64.77
2024-01-22T21:49:39.508Z,64.80
2024-01-22T21:52:37.269Z,64.83
2024-01-22T21:55:35.704Z,64.91
2024-01-22T21:58:33.319Z,65.02
2024-01-22T22:01:31.274Z,65.18
2024-01-22T22:04:28.991Z,65.59
2024-01-22T22:07:26.837Z,66.24
2024-01-22T22:10:28.016Z,66.96
2024-01-22T22:13:25.993Z,67.53
2024-01-22T22:16:23.800Z,68.12
2024-01-22T22:19:21.946Z,68.61
2024-01-22T22:22:20.502Z,68.97
2024-01-22T22:25:18.173Z,69.37
2024-01-22T22:28:15.631Z,69.75
2024-01-22T22:31:13.278Z,70.00
2024-01-22T22:34:10.862Z,70.15
2024-01-22T22:37:08.595Z,70.23
2024-01-22T22:40:07.113Z,70.46
2024-01-22T22:43:04.958Z,70.82
2024-01-22T22:46:02.367Z,70.82
2024-01-22T22:49:00.324Z,70.98
2024-01-22T22:51:58.669Z,71.42
2024-01-22T22:54:56.372Z,71.59
2024-01-22T22:57:54.713Z,71.68
2024-01-22T23:00:52.399Z,71.70
2024-01-22T23:03:51.357Z,71.77
2024-01-22T23:06:48.941Z,72.14
2024-01-22T23:09:46.320Z,72.42
2024-01-22T23:12:44.081Z,72.74
2024-01-22T23:15:41.544Z,73.03
2024-01-22T23:18:39.365Z,73.25
2024-01-22T23:21:36.876Z,73.34
2024-01-22T23:24:34.591Z,73.28
2024-01-22T23:27:32.139Z,73.28
2024-01-22T23:30:29.974Z,73.47
2024-01-22T23:33:27.480Z,73.62
2024-01-22T23:36:29.487Z,73.68
2024-01-22T23:39:27.069Z,73.66
2024-01-22T23:42:24.833Z,73.60
2024-01-22T23:45:22.358Z,73.63
2024-01-22T23:48:22.577Z,73.60
2024-01-22T23:51:20.361Z,73.55
2024-01-22T23:54:18.077Z,73.60
2024-01-22T23:57:15.832Z,73.63
